Kaami — C6VO9 — position and weather

sailwx.info

Track history (hours):
 
Tides and Currents Weather Stations Pressure Air Temp Water Temp Dewpoint Dewpoint Depression Visibility Wind Speed Wind Dir Waves Ship Positions

Kaami

Last reported at 2017-Nov-19 19:18 UTC. Time now 2017-Nov-22 09:23 UTC.
Position N 59°25' E 004°44'.

Length 90 m; draft 5.8 m.

Type: Cargo ship. MMSI: 308542000.

Date/timePositionNaut miles runAvg speedWind from/ knotsBaromVisibWave heightAir tempDewpointWater temp
2017-Nov-19 19:18N 59°25' E 004°44'3 9.5
2017-Nov-19 19:00N 59°28' E 004°46'5 9.3
2017-Nov-19 18:30N 59°32' E 004°49'5 9.0
2017-Nov-19 18:00N 59°37' E 004°51'5 9.3
2017-Nov-19 17:30N 59°41' E 004°52'5 9.2
2017-Nov-19 16:59N 59°46' E 004°51'5 9.1
2017-Nov-19 16:29N 59°50' E 004°50'4 9.0
2017-Nov-19 16:00N 59°55' E 004°50'4 8.9
2017-Nov-19 15:30N 59°59' E 004°49'5 9.0
2017-Nov-19 15:00N 60°04' E 004°48'4 8.9
2017-Nov-19 14:30N 60°08' E 004°46'4 8.6
2017-Nov-19 14:00N 60°12' E 004°45'5 9.0
2017-Nov-19 13:29N 60°17' E 004°44'4 9.2
2017-Nov-19 13:00N 60°21' E 004°42'5 9.2
2017-Nov-19 12:30N 60°26' E 004°39'4 8.9
2017-Nov-19 12:00N 60°30' E 004°37'4 8.9
2017-Nov-19 11:30N 60°34' E 004°35'4 8.8
2017-Nov-19 11:00N 60°39' E 004°32'5 9.1
2017-Nov-19 10:30N 60°43' E 004°30'4 8.7
2017-Nov-19 09:59N 60°47' E 004°27'4 8.6
2017-Nov-19 09:30N 60°51' E 004°24'4 8.5
2017-Nov-19 09:00N 60°55' E 004°22'4 8.4
2017-Nov-19 08:30N 60°60' E 004°21'5 9.3
2017-Nov-19 08:00N 61°04' E 004°21'5 9.5
2017-Nov-19 07:30N 61°09' E 004°21'5 9.4
2017-Nov-19 07:00N 61°14' E 004°21'5 9.7
2017-Nov-19 06:30N 61°18' E 004°21'5 9.5
2017-Nov-19 06:00N 61°23' E 004°20'5 9.7
2017-Nov-19 05:30N 61°28' E 004°20'5 9.5
2017-Nov-19 05:00N 61°33' E 004°23'5 9.6
2017-Nov-19 04:30N 61°37' E 004°26'5 9.8
2017-Nov-19 04:00N 61°42' E 004°29'5 9.6
2017-Nov-19 03:30N 61°46' E 004°32'5 9.9
2017-Nov-19 03:00N 61°51' E 004°36'5 9.8
2017-Nov-19 02:29N 61°56' E 004°39'5 9.8
2017-Nov-19 02:00N 62°00' E 004°43'5 9.6
2017-Nov-19 01:30N 62°05' E 004°47'5 9.9
2017-Nov-19 01:00N 62°09' E 004°52'5 9.1
2017-Nov-19 00:30N 62°13' E 004°57'4 8.7
2017-Nov-19 00:00N 62°16' E 005°03'4 8.7
2017-Nov-18 23:30N 62°20' E 005°09'4 8.8
2017-Nov-18 23:00N 62°23' E 005°15'4 8.8
2017-Nov-18 22:30N 62°26' E 005°22'5 9.0
2017-Nov-18 22:00N 62°30' E 005°28'4 8.8
2017-Nov-18 21:30N 62°33' E 005°34'5 9.1
2017-Nov-18 21:00N 62°36' E 005°41'5 9.3
2017-Nov-18 20:30N 62°39' E 005°49'5 9.5
2017-Nov-18 20:00N 62°43' E 005°56'5 9.6
2017-Nov-18 19:30N 62°46' E 006°03'510.0
2017-Nov-18 19:00N 62°50' E 006°11'510.4
2017-Nov-18 18:30N 62°54' E 006°18'5 9.5
2017-Nov-18 18:00N 62°58' E 006°24'5 9.4
2017-Nov-18 17:30N 63°01' E 006°31'5 9.3
2017-Nov-18 17:00N 63°05' E 006°38'5 9.4
2017-Nov-18 16:30N 63°08' E 006°45'5 9.5
2017-Nov-18 16:00N 63°12' E 006°52'5 9.5
2017-Nov-18 15:30N 63°15' E 006°59'5 9.5
2017-Nov-18 15:00N 63°18' E 007°06'5 9.1
2017-Nov-18 14:30N 63°22' E 007°13'4 8.7
2017-Nov-18 14:00N 63°25' E 007°19'5 9.2
2017-Nov-18 13:30N 63°29' E 007°25'4 9.0
2017-Nov-18 13:00N 63°33' E 007°31'4 8.5
2017-Nov-18 12:30N 63°36' E 007°37'4 7.9
2017-Nov-18 12:00N 63°39' E 007°43'4 7.7
2017-Nov-18 11:30N 63°42' E 007°49'4 7.3
2017-Nov-18 10:59N 63°44' E 007°55'4 7.4
2017-Nov-18 10:30N 63°47' E 008°01'4 7.2
2017-Nov-18 10:00N 63°50' E 008°06'4 7.2
2017-Nov-18 09:30N 63°53' E 008°10'4 7.7
2017-Nov-18 09:00N 63°56' E 008°16'4 7.1
2017-Nov-18 08:30N 63°59' E 008°20'87 4.0
2017-Nov-17 10:25N 65°07' E 010°27'2 4.7
2017-Nov-17 10:00N 65°09' E 010°29'2 4.7
2017-Nov-17 09:30N 65°11' E 010°32'3 5.0
2017-Nov-17 09:00N 65°13' E 010°34'3 5.7
2017-Nov-17 08:30N 65°16' E 010°36'3 6.1
2017-Nov-17 08:00N 65°19' E 010°39'3 6.1
2017-Nov-17 07:30N 65°22' E 010°42'3 6.2
2017-Nov-17 06:59N 65°24' E 010°45'3 5.9
2017-Nov-17 06:30N 65°27' E 010°47'52 6.8
2017-Nov-16 22:53N 66°14' E 011°43'4 9.7
2017-Nov-16 22:30N 66°15' E 011°52'5 9.9
2017-Nov-16 22:00N 66°16' E 012°03'510.2
2017-Nov-16 21:30N 66°17' E 012°16'5 9.4
2017-Nov-16 21:00N 66°15' E 012°26'5 9.4
2017-Nov-16 20:30N 66°16' E 012°38'510.4
2017-Nov-16 20:00N 66°19' E 012°47'510.0
2017-Nov-16 19:30N 66°22' E 012°57'510.2
2017-Nov-16 19:00N 66°27' E 012°59'5 9.6
2017-Nov-16 18:30N 66°32' E 012°57'5 8.9
2017-Nov-16 18:00N 66°36' E 013°04'5 9.8
2017-Nov-16 17:30N 66°40' E 013°08'510.3
2017-Nov-16 17:00N 66°45' E 013°13'510.3
2017-Nov-16 16:30N 66°48' E 013°24'510.6
2017-Nov-16 15:59N 66°49' E 013°37'510.7
2017-Nov-16 15:30N 66°48' E 013°50'3 0.1
2017-Nov-15 06:38N 66°49' E 013°56'0 0.0
2017-Nov-15 05:59N 66°49' E 013°56'0 0.0
2017-Nov-15 05:17N 66°49' E 013°56'0 0.0
2017-Nov-15 02:20N 66°49' E 013°56'0 0.0
2017-Nov-15 01:56N 66°49' E 013°56'0 0.0
2017-Nov-15 00:20N 66°49' E 013°56'0 0.0
2017-Nov-14 23:50N 66°49' E 013°56'0 0.0
2017-Nov-14 23:20N 66°49' E 013°56'0 0.0
2017-Nov-14 22:41N 66°49' E 013°56'0 0.0
2017-Nov-14 22:23N 66°49' E 013°56'0 0.0
2017-Nov-14 19:53N 66°49' E 013°56'0 0.0
2017-Nov-14 19:20N 66°49' E 013°56'0 0.0
2017-Nov-14 16:20N 66°49' E 013°56'0 0.0
2017-Nov-14 15:50N 66°49' E 013°56'0 0.0
2017-Nov-14 15:11N 66°49' E 013°56'0 0.0
2017-Nov-14 14:44N 66°49' E 013°56'0 0.0
2017-Nov-14 14:26N 66°49' E 013°56'0 0.0
2017-Nov-14 13:50N 66°49' E 013°56'0 0.0
2017-Nov-14 13:19N 66°49' E 013°56'0 0.0
2017-Nov-14 12:43N 66°49' E 013°56'0 0.0
2017-Nov-14 12:04N 66°49' E 013°56'0 0.0
2017-Nov-14 11:22N 66°49' E 013°56'0 0.0
2017-Nov-14 10:58N 66°49' E 013°56'0 0.0
2017-Nov-14 10:19N 66°49' E 013°56'0 0.0
2017-Nov-14 09:31N 66°49' E 013°56'0 0.0
2017-Nov-14 09:19N 66°49' E 013°56'0 0.0
2017-Nov-14 08:43N 66°49' E 013°56'0 0.0
2017-Nov-14 08:01N 66°49' E 013°56'0 0.0
2017-Nov-14 07:55N 66°49' E 013°56'0 0.0
2017-Nov-14 07:13N 66°49' E 013°56'0 0.0
2017-Nov-14 06:37N 66°49' E 013°56'0 0.0
2017-Nov-14 06:19N 66°49' E 013°56'0 0.0
2017-Nov-14 05:55N 66°49' E 013°56'0 0.0
2017-Nov-14 05:19N 66°49' E 013°56'0 0.0
2017-Nov-14 04:58N 66°49' E 013°56'0 0.0
2017-Nov-14 04:28N 66°49' E 013°56'0 0.0
2017-Nov-14 03:58N 66°49' E 013°56'0 0.0
2017-Nov-14 03:16N 66°49' E 013°56'0 0.0
2017-Nov-14 02:58N 66°49' E 013°56'0 0.0
2017-Nov-14 02:22N 66°49' E 013°56'0 0.0
2017-Nov-14 01:58N 66°49' E 013°56'0 0.0
2017-Nov-14 01:28N 66°49' E 013°56'0 0.0
2017-Nov-14 00:55N 66°49' E 013°56'0 0.0
2017-Nov-14 00:22N 66°49' E 013°56'0 0.0
2017-Nov-13 23:58N 66°49' E 013°56'0 0.0
2017-Nov-13 23:28N 66°49' E 013°56'0 0.0
2017-Nov-13 22:58N 66°49' E 013°56'0 0.0
2017-Nov-13 22:28N 66°49' E 013°56'0 0.0
2017-Nov-13 21:49N 66°49' E 013°56'0 0.0
2017-Nov-13 01:57N 66°49' E 013°56'0 0.0
2017-Nov-13 01:27N 66°49' E 013°56'0 0.0
2017-Nov-13 00:51N 66°49' E 013°56'0 0.0
2017-Nov-13 00:30N 66°49' E 013°56'0 0.0
2017-Nov-12 23:39N 66°49' E 013°56'0 0.0
2017-Nov-12 23:27N 66°49' E 013°56'0 0.0
2017-Nov-12 23:00N 66°49' E 013°56'0 0.0
2017-Nov-12 22:30N 66°49' E 013°56'0 0.0
2017-Nov-12 21:51N 66°49' E 013°56'0 0.0
2017-Nov-12 21:24N 66°49' E 013°56'0 0.0
2017-Nov-12 20:42N 66°49' E 013°56'0 0.0
2017-Nov-12 20:27N 66°49' E 013°56'0 0.0
2017-Nov-12 19:48N 66°49' E 013°56'0 0.0
2017-Nov-12 18:42N 66°49' E 013°56'0 0.0
2017-Nov-12 18:12N 66°49' E 013°56'0 0.0
2017-Nov-12 17:54N 66°49' E 013°56'0 0.0
2017-Nov-12 17:21N 66°49' E 013°56'0 0.0
2017-Nov-12 16:42N 66°49' E 013°56'0 0.0
2017-Nov-12 16:18N 66°49' E 013°56'0 0.0
2017-Nov-12 15:42N 66°49' E 013°56'0 0.0
2017-Nov-12 14:54N 66°49' E 013°56'0 0.0
2017-Nov-12 14:30N 66°49' E 013°56'0 0.0
2017-Nov-12 13:54N 66°49' E 013°56'0 0.0
2017-Nov-12 13:21N 66°49' E 013°56'0 0.0
2017-Nov-12 12:39N 66°49' E 013°56'0 0.0
2017-Nov-12 12:30N 66°49' E 013°56'1 1.6
2017-Nov-12 12:00N 66°48' E 013°55'510.8
2017-Nov-12 11:30N 66°49' E 013°41'4 7.8
2017-Nov-12 11:00N 66°52' E 013°33'510.9
2017-Nov-12 10:30N 66°57' E 013°29'510.7
2017-Nov-12 10:00N 67°00' E 013°39'611.1
2017-Nov-12 09:30N 67°03' E 013°51'511.0
2017-Nov-12 09:00N 67°07' E 014°00'4 8.6
2017-Nov-12 08:30N 67°11' E 013°56'5 9.5
2017-Nov-12 08:00N 67°13' E 013°46'3 5.2
2017-Nov-12 07:30N 67°14' E 013°39'3 6.0
2017-Nov-12 07:00N 67°14' E 013°31'3 5.6
2017-Nov-12 06:30N 67°15' E 013°24'3 5.8
2017-Nov-12 06:00N 67°17' E 013°20'3 5.5
2017-Nov-12 05:30N 67°20' E 013°20'3 5.3
2017-Nov-12 05:00N 67°23' E 013°22'3 6.9
2017-Nov-12 04:30N 67°25' E 013°28'5 9.0
2017-Nov-12 04:00N 67°29' E 013°36'510.0
2017-Nov-12 03:30N 67°32' E 013°44'5 9.9
2017-Nov-12 03:00N 67°36' E 013°53'5 9.7
2017-Nov-12 02:30N 67°40' E 014°01'5 9.1
2017-Nov-12 02:00N 67°43' E 014°09'5 9.3
2017-Nov-12 01:30N 67°47' E 014°17'5 9.4
2017-Nov-12 01:00N 67°50' E 014°25'5 9.4
2017-Nov-12 00:30N 67°54' E 014°34'5 9.9
2017-Nov-12 00:00N 67°57' E 014°44'510.4
2017-Nov-11 23:30N 67°60' E 014°55'510.7
2017-Nov-11 23:00N 68°03' E 015°06'611.0
2017-Nov-11 22:30N 68°07' E 015°17'510.4
2017-Nov-11 22:00N 68°11' E 015°27'510.9
2017-Nov-11 21:30N 68°13' E 015°39'510.8
2017-Nov-11 21:00N 68°16' E 015°51'4 8.0
2017-Nov-11 20:30N 68°17' E 016°02'611.3
2017-Nov-11 20:00N 68°12' E 016°10'611.0
2017-Nov-11 19:30N 68°07' E 016°16'3 5.7
2017-Nov-11 19:00N 68°06' E 016°23'0 0.0
2017-Nov-11 18:30N 68°06' E 016°23'0 0.0
2017-Nov-11 17:57N 68°06' E 016°23'0 0.0
2017-Nov-11 17:30N 68°06' E 016°23'0 0.0
2017-Nov-11 17:00N 68°06' E 016°23'0 0.0
2017-Nov-11 16:30N 68°06' E 016°23'0 0.0
2017-Nov-11 16:00N 68°06' E 016°23'0 0.0
2017-Nov-11 15:27N 68°06' E 016°23'0 0.0
2017-Nov-11 15:00N 68°06' E 016°23'0 0.0
2017-Nov-11 14:30N 68°06' E 016°23'0 0.0
2017-Nov-11 14:00N 68°06' E 016°23'0 0.0
2017-Nov-11 13:30N 68°06' E 016°23'0 0.0
2017-Nov-11 13:00N 68°06' E 016°23'0 0.0
2017-Nov-11 12:30N 68°06' E 016°23'0 0.0
2017-Nov-11 12:00N 68°06' E 016°23'0 0.0
2017-Nov-11 11:30N 68°06' E 016°23'0 0.0
2017-Nov-11 11:00N 68°06' E 016°23'0 0.0
2017-Nov-11 10:30N 68°06' E 016°23'0 0.0
2017-Nov-11 10:00N 68°06' E 016°23'0 0.0
2017-Nov-11 09:30N 68°06' E 016°23'0 0.0
2017-Nov-11 09:00N 68°06' E 016°23'0 0.0
2017-Nov-11 08:30N 68°06' E 016°23'0 0.0
2017-Nov-11 08:00N 68°06' E 016°23'0 0.0
2017-Nov-11 07:30N 68°06' E 016°23'0 0.0
2017-Nov-11 07:00N 68°06' E 016°23'0 0.0
2017-Nov-11 06:30N 68°06' E 016°23'0 0.0
2017-Nov-11 06:00N 68°06' E 016°23'0 0.0
2017-Nov-11 05:30N 68°06' E 016°23'0 0.0
2017-Nov-11 05:00N 68°06' E 016°23'0 0.0
2017-Nov-11 04:27N 68°06' E 016°23'0 0.0
2017-Nov-11 04:00N 68°06' E 016°23'0 0.0
2017-Nov-11 03:30N 68°06' E 016°23'0 0.0
2017-Nov-11 03:00N 68°06' E 016°23'0 0.0
2017-Nov-11 02:30N 68°06' E 016°23'0 0.0
2017-Nov-11 02:00N 68°06' E 016°23'0 0.0
2017-Nov-11 01:30N 68°06' E 016°23'0 0.0
2017-Nov-11 01:00N 68°06' E 016°23'0 0.0
2017-Nov-11 00:29N 68°06' E 016°23'0 0.0
2017-Nov-10 23:59N 68°06' E 016°23'0 0.0
2017-Nov-10 23:29N 68°06' E 016°23'0 0.0
2017-Nov-10 22:56N 68°06' E 016°23'0 0.0
2017-Nov-10 22:29N 68°06' E 016°23'0 0.0
2017-Nov-10 21:59N 68°06' E 016°23'0 0.0
2017-Nov-10 21:29N 68°06' E 016°23'0 0.0
2017-Nov-10 20:59N 68°06' E 016°23'0 0.0
2017-Nov-10 20:29N 68°06' E 016°23'0 0.0
2017-Nov-10 19:59N 68°06' E 016°23'0 0.0
2017-Nov-10 19:29N 68°06' E 016°23'0 0.0
2017-Nov-10 18:59N 68°06' E 016°23'0 0.0
2017-Nov-10 18:29N 68°06' E 016°23'0 0.0
2017-Nov-10 17:59N 68°06' E 016°23'0 0.0
2017-Nov-10 17:29N 68°06' E 016°23'0 0.0
2017-Nov-10 16:59N 68°06' E 016°23'0 0.0
2017-Nov-10 16:26N 68°06' E 016°23'0 0.0
2017-Nov-10 15:59N 68°06' E 016°23'0 0.0
2017-Nov-10 15:26N 68°06' E 016°23'0 0.0
2017-Nov-10 14:59N 68°06' E 016°23'0 0.0
2017-Nov-10 14:29N 68°06' E 016°23'0 0.0
2017-Nov-10 13:56N 68°06' E 016°23'0 0.0
2017-Nov-10 13:29N 68°06' E 016°23'0 0.0
2017-Nov-10 12:59N 68°06' E 016°23'0 0.0
2017-Nov-10 12:29N 68°06' E 016°23'0 0.0
2017-Nov-10 11:59N 68°06' E 016°23'0 0.0
2017-Nov-10 11:29N 68°06' E 016°23'0 0.0
2017-Nov-10 10:59N 68°06' E 016°23'0 0.0
2017-Nov-10 10:29N 68°06' E 016°23'0 0.0
2017-Nov-10 09:59N 68°06' E 016°23'0 0.0
2017-Nov-10 09:29N 68°06' E 016°23'0 0.0
2017-Nov-10 08:56N 68°06' E 016°23'0 0.0
2017-Nov-10 08:29N 68°06' E 016°23'0 0.0
2017-Nov-10 07:59N 68°06' E 016°23'0 0.0
2017-Nov-10 07:29N 68°06' E 016°23'0 0.0
2017-Nov-10 06:59N 68°06' E 016°23'0 0.0
2017-Nov-10 06:29N 68°06' E 016°23'0 0.0
2017-Nov-10 05:59N 68°06' E 016°23'0 0.0
2017-Nov-10 05:29N 68°06' E 016°23'0 0.0
2017-Nov-10 04:59N 68°06' E 016°23'0 0.0
2017-Nov-10 04:29N 68°06' E 016°23'0 0.0
2017-Nov-10 03:59N 68°06' E 016°23'0 0.0
2017-Nov-10 03:29N 68°06' E 016°23'0 0.0
2017-Nov-10 02:59N 68°06' E 016°23'0 0.0
2017-Nov-10 02:26N 68°06' E 016°23'0 0.0
2017-Nov-10 01:56N 68°06' E 016°23'0 0.0
2017-Nov-10 01:29N 68°06' E 016°23'0 0.0
2017-Nov-10 00:59N 68°06' E 016°23'0 0.0
2017-Nov-10 00:29N 68°06' E 016°23'0 0.0
2017-Nov-09 23:59N 68°06' E 016°23'0 0.0
2017-Nov-09 23:29N 68°06' E 016°23'0 0.0
2017-Nov-09 22:59N 68°06' E 016°23'0 0.0
2017-Nov-09 22:29N 68°06' E 016°23'0 0.0
2017-Nov-09 21:59N 68°06' E 016°23'0 0.0
2017-Nov-09 21:29N 68°06' E 016°23'0 0.0
2017-Nov-09 20:59N 68°06' E 016°23'0 0.0
2017-Nov-09 20:29N 68°06' E 016°23'0 0.0
2017-Nov-09 19:59N 68°06' E 016°23'0 0.0
2017-Nov-09 19:29N 68°06' E 016°23'  
Track history (hours):
 
Tides and Currents Weather Stations Pressure Air Temp Water Temp Dewpoint Dewpoint Depression Visibility Wind Speed Wind Dir Waves Ship Positions

Kaami

Last reported at 2017-Nov-19 19:18 UTC. Time now 2017-Nov-22 09:23 UTC.
Position N 59°25' E 004°44'.

Length 90 m; draft 5.8 m.

Type: Cargo ship. MMSI: 308542000.

Date/timePositionNaut miles runAvg speedWind from/ knotsBaromVisibWave heightAir tempDewpointWater temp
2017-Nov-19 19:18N 59°25' E 004°44'3 9.5
2017-Nov-19 19:00N 59°28' E 004°46'5 9.3
2017-Nov-19 18:30N 59°32' E 004°49'5 9.0
2017-Nov-19 18:00N 59°37' E 004°51'5 9.3
2017-Nov-19 17:30N 59°41' E 004°52'5 9.2
2017-Nov-19 16:59N 59°46' E 004°51'5 9.1
2017-Nov-19 16:29N 59°50' E 004°50'4 9.0
2017-Nov-19 16:00N 59°55' E 004°50'4 8.9
2017-Nov-19 15:30N 59°59' E 004°49'5 9.0
2017-Nov-19 15:00N 60°04' E 004°48'4 8.9
2017-Nov-19 14:30N 60°08' E 004°46'4 8.6
2017-Nov-19 14:00N 60°12' E 004°45'5 9.0
2017-Nov-19 13:29N 60°17' E 004°44'4 9.2
2017-Nov-19 13:00N 60°21' E 004°42'5 9.2
2017-Nov-19 12:30N 60°26' E 004°39'4 8.9
2017-Nov-19 12:00N 60°30' E 004°37'4 8.9
2017-Nov-19 11:30N 60°34' E 004°35'4 8.8
2017-Nov-19 11:00N 60°39' E 004°32'5 9.1
2017-Nov-19 10:30N 60°43' E 004°30'4 8.7
2017-Nov-19 09:59N 60°47' E 004°27'4 8.6
2017-Nov-19 09:30N 60°51' E 004°24'4 8.5
2017-Nov-19 09:00N 60°55' E 004°22'4 8.4
2017-Nov-19 08:30N 60°60' E 004°21'5 9.3
2017-Nov-19 08:00N 61°04' E 004°21'5 9.5
2017-Nov-19 07:30N 61°09' E 004°21'5 9.4
2017-Nov-19 07:00N 61°14' E 004°21'5 9.7
2017-Nov-19 06:30N 61°18' E 004°21'5 9.5
2017-Nov-19 06:00N 61°23' E 004°20'5 9.7
2017-Nov-19 05:30N 61°28' E 004°20'5 9.5
2017-Nov-19 05:00N 61°33' E 004°23'5 9.6
2017-Nov-19 04:30N 61°37' E 004°26'5 9.8
2017-Nov-19 04:00N 61°42' E 004°29'5 9.6
2017-Nov-19 03:30N 61°46' E 004°32'5 9.9
2017-Nov-19 03:00N 61°51' E 004°36'5 9.8
2017-Nov-19 02:29N 61°56' E 004°39'5 9.8
2017-Nov-19 02:00N 62°00' E 004°43'5 9.6
2017-Nov-19 01:30N 62°05' E 004°47'5 9.9
2017-Nov-19 01:00N 62°09' E 004°52'5 9.1
2017-Nov-19 00:30N 62°13' E 004°57'4 8.7
2017-Nov-19 00:00N 62°16' E 005°03'4 8.7
2017-Nov-18 23:30N 62°20' E 005°09'4 8.8
2017-Nov-18 23:00N 62°23' E 005°15'4 8.8
2017-Nov-18 22:30N 62°26' E 005°22'5 9.0
2017-Nov-18 22:00N 62°30' E 005°28'4 8.8
2017-Nov-18 21:30N 62°33' E 005°34'5 9.1
2017-Nov-18 21:00N 62°36' E 005°41'5 9.3
2017-Nov-18 20:30N 62°39' E 005°49'5 9.5
2017-Nov-18 20:00N 62°43' E 005°56'5 9.6
2017-Nov-18 19:30N 62°46' E 006°03'510.0
2017-Nov-18 19:00N 62°50' E 006°11'510.4
2017-Nov-18 18:30N 62°54' E 006°18'5 9.5
2017-Nov-18 18:00N 62°58' E 006°24'5 9.4
2017-Nov-18 17:30N 63°01' E 006°31'5 9.3
2017-Nov-18 17:00N 63°05' E 006°38'5 9.4
2017-Nov-18 16:30N 63°08' E 006°45'5 9.5
2017-Nov-18 16:00N 63°12' E 006°52'5 9.5
2017-Nov-18 15:30N 63°15' E 006°59'5 9.5
2017-Nov-18 15:00N 63°18' E 007°06'5 9.1
2017-Nov-18 14:30N 63°22' E 007°13'4 8.7
2017-Nov-18 14:00N 63°25' E 007°19'5 9.2
2017-Nov-18 13:30N 63°29' E 007°25'4 9.0
2017-Nov-18 13:00N 63°33' E 007°31'4 8.5
2017-Nov-18 12:30N 63°36' E 007°37'4 7.9
2017-Nov-18 12:00N 63°39' E 007°43'4 7.7
2017-Nov-18 11:30N 63°42' E 007°49'4 7.3
2017-Nov-18 10:59N 63°44' E 007°55'4 7.4
2017-Nov-18 10:30N 63°47' E 008°01'4 7.2
2017-Nov-18 10:00N 63°50' E 008°06'4 7.2
2017-Nov-18 09:30N 63°53' E 008°10'4 7.7
2017-Nov-18 09:00N 63°56' E 008°16'4 7.1
2017-Nov-18 08:30N 63°59' E 008°20'87 4.0
2017-Nov-17 10:25N 65°07' E 010°27'2 4.7
2017-Nov-17 10:00N 65°09' E 010°29'2 4.7
2017-Nov-17 09:30N 65°11' E 010°32'3 5.0
2017-Nov-17 09:00N 65°13' E 010°34'3 5.7
2017-Nov-17 08:30N 65°16' E 010°36'3 6.1
2017-Nov-17 08:00N 65°19' E 010°39'3 6.1
2017-Nov-17 07:30N 65°22' E 010°42'3 6.2
2017-Nov-17 06:59N 65°24' E 010°45'3 5.9
2017-Nov-17 06:30N 65°27' E 010°47'52 6.8
2017-Nov-16 22:53N 66°14' E 011°43'4 9.7
2017-Nov-16 22:30N 66°15' E 011°52'5 9.9
2017-Nov-16 22:00N 66°16' E 012°03'510.2
2017-Nov-16 21:30N 66°17' E 012°16'5 9.4
2017-Nov-16 21:00N 66°15' E 012°26'5 9.4
2017-Nov-16 20:30N 66°16' E 012°38'510.4
2017-Nov-16 20:00N 66°19' E 012°47'510.0
2017-Nov-16 19:30N 66°22' E 012°57'510.2
2017-Nov-16 19:00N 66°27' E 012°59'5 9.6
2017-Nov-16 18:30N 66°32' E 012°57'5 8.9
2017-Nov-16 18:00N 66°36' E 013°04'5 9.8
2017-Nov-16 17:30N 66°40' E 013°08'510.3
2017-Nov-16 17:00N 66°45' E 013°13'510.3
2017-Nov-16 16:30N 66°48' E 013°24'510.6
2017-Nov-16 15:59N 66°49' E 013°37'510.7
2017-Nov-16 15:30N 66°48' E 013°50'3 0.1
2017-Nov-15 06:38N 66°49' E 013°56'0 0.0
2017-Nov-15 05:59N 66°49' E 013°56'0 0.0
2017-Nov-15 05:17N 66°49' E 013°56'0 0.0
2017-Nov-15 02:20N 66°49' E 013°56'0 0.0
2017-Nov-15 01:56N 66°49' E 013°56'0 0.0
2017-Nov-15 00:20N 66°49' E 013°56'0 0.0
2017-Nov-14 23:50N 66°49' E 013°56'0 0.0
2017-Nov-14 23:20N 66°49' E 013°56'0 0.0
2017-Nov-14 22:41N 66°49' E 013°56'0 0.0
2017-Nov-14 22:23N 66°49' E 013°56'0 0.0
2017-Nov-14 19:53N 66°49' E 013°56'0 0.0
2017-Nov-14 19:20N 66°49' E 013°56'0 0.0
2017-Nov-14 16:20N 66°49' E 013°56'0 0.0
2017-Nov-14 15:50N 66°49' E 013°56'0 0.0
2017-Nov-14 15:11N 66°49' E 013°56'0 0.0
2017-Nov-14 14:44N 66°49' E 013°56'0 0.0
2017-Nov-14 14:26N 66°49' E 013°56'0 0.0
2017-Nov-14 13:50N 66°49' E 013°56'0 0.0
2017-Nov-14 13:19N 66°49' E 013°56'0 0.0
2017-Nov-14 12:43N 66°49' E 013°56'0 0.0
2017-Nov-14 12:04N 66°49' E 013°56'0 0.0
2017-Nov-14 11:22N 66°49' E 013°56'0 0.0
2017-Nov-14 10:58N 66°49' E 013°56'0 0.0
2017-Nov-14 10:19N 66°49' E 013°56'0 0.0
2017-Nov-14 09:31N 66°49' E 013°56'0 0.0
2017-Nov-14 09:19N 66°49' E 013°56'0 0.0
2017-Nov-14 08:43N 66°49' E 013°56'0 0.0
2017-Nov-14 08:01N 66°49' E 013°56'0 0.0
2017-Nov-14 07:55N 66°49' E 013°56'0 0.0
2017-Nov-14 07:13N 66°49' E 013°56'0 0.0
2017-Nov-14 06:37N 66°49' E 013°56'0 0.0
2017-Nov-14 06:19N 66°49' E 013°56'0 0.0
2017-Nov-14 05:55N 66°49' E 013°56'0 0.0
2017-Nov-14 05:19N 66°49' E 013°56'0 0.0
2017-Nov-14 04:58N 66°49' E 013°56'0 0.0
2017-Nov-14 04:28N 66°49' E 013°56'0 0.0
2017-Nov-14 03:58N 66°49' E 013°56'0 0.0
2017-Nov-14 03:16N 66°49' E 013°56'0 0.0
2017-Nov-14 02:58N 66°49' E 013°56'0 0.0
2017-Nov-14 02:22N 66°49' E 013°56'0 0.0
2017-Nov-14 01:58N 66°49' E 013°56'0 0.0
2017-Nov-14 01:28N 66°49' E 013°56'0 0.0
2017-Nov-14 00:55N 66°49' E 013°56'0 0.0
2017-Nov-14 00:22N 66°49' E 013°56'0 0.0
2017-Nov-13 23:58N 66°49' E 013°56'0 0.0
2017-Nov-13 23:28N 66°49' E 013°56'0 0.0
2017-Nov-13 22:58N 66°49' E 013°56'0 0.0
2017-Nov-13 22:28N 66°49' E 013°56'0 0.0
2017-Nov-13 21:49N 66°49' E 013°56'0 0.0
2017-Nov-13 01:57N 66°49' E 013°56'0 0.0
2017-Nov-13 01:27N 66°49' E 013°56'0 0.0
2017-Nov-13 00:51N 66°49' E 013°56'0 0.0
2017-Nov-13 00:30N 66°49' E 013°56'0 0.0
2017-Nov-12 23:39N 66°49' E 013°56'0 0.0
2017-Nov-12 23:27N 66°49' E 013°56'0 0.0
2017-Nov-12 23:00N 66°49' E 013°56'0 0.0
2017-Nov-12 22:30N 66°49' E 013°56'0 0.0
2017-Nov-12 21:51N 66°49' E 013°56'0 0.0
2017-Nov-12 21:24N 66°49' E 013°56'0 0.0
2017-Nov-12 20:42N 66°49' E 013°56'0 0.0
2017-Nov-12 20:27N 66°49' E 013°56'0 0.0
2017-Nov-12 19:48N 66°49' E 013°56'0 0.0
2017-Nov-12 18:42N 66°49' E 013°56'0 0.0
2017-Nov-12 18:12N 66°49' E 013°56'0 0.0
2017-Nov-12 17:54N 66°49' E 013°56'0 0.0
2017-Nov-12 17:21N 66°49' E 013°56'0 0.0
2017-Nov-12 16:42N 66°49' E 013°56'0 0.0
2017-Nov-12 16:18N 66°49' E 013°56'0 0.0
2017-Nov-12 15:42N 66°49' E 013°56'0 0.0
2017-Nov-12 14:54N 66°49' E 013°56'0 0.0
2017-Nov-12 14:30N 66°49' E 013°56'0 0.0
2017-Nov-12 13:54N 66°49' E 013°56'0 0.0
2017-Nov-12 13:21N 66°49' E 013°56'0 0.0
2017-Nov-12 12:39N 66°49' E 013°56'0 0.0
2017-Nov-12 12:30N 66°49' E 013°56'1 1.6
2017-Nov-12 12:00N 66°48' E 013°55'510.8
2017-Nov-12 11:30N 66°49' E 013°41'4 7.8
2017-Nov-12 11:00N 66°52' E 013°33'510.9
2017-Nov-12 10:30N 66°57' E 013°29'510.7
2017-Nov-12 10:00N 67°00' E 013°39'611.1
2017-Nov-12 09:30N 67°03' E 013°51'511.0
2017-Nov-12 09:00N 67°07' E 014°00'4 8.6
2017-Nov-12 08:30N 67°11' E 013°56'5 9.5
2017-Nov-12 08:00N 67°13' E 013°46'3 5.2
2017-Nov-12 07:30N 67°14' E 013°39'3 6.0
2017-Nov-12 07:00N 67°14' E 013°31'3 5.6
2017-Nov-12 06:30N 67°15' E 013°24'3 5.8
2017-Nov-12 06:00N 67°17' E 013°20'3 5.5
2017-Nov-12 05:30N 67°20' E 013°20'3 5.3
2017-Nov-12 05:00N 67°23' E 013°22'3 6.9
2017-Nov-12 04:30N 67°25' E 013°28'5 9.0
2017-Nov-12 04:00N 67°29' E 013°36'510.0
2017-Nov-12 03:30N 67°32' E 013°44'5 9.9
2017-Nov-12 03:00N 67°36' E 013°53'5 9.7
2017-Nov-12 02:30N 67°40' E 014°01'5 9.1
2017-Nov-12 02:00N 67°43' E 014°09'5 9.3
2017-Nov-12 01:30N 67°47' E 014°17'5 9.4
2017-Nov-12 01:00N 67°50' E 014°25'5 9.4
2017-Nov-12 00:30N 67°54' E 014°34'5 9.9
2017-Nov-12 00:00N 67°57' E 014°44'510.4
2017-Nov-11 23:30N 67°60' E 014°55'510.7
2017-Nov-11 23:00N 68°03' E 015°06'611.0
2017-Nov-11 22:30N 68°07' E 015°17'510.4
2017-Nov-11 22:00N 68°11' E 015°27'510.9
2017-Nov-11 21:30N 68°13' E 015°39'510.8
2017-Nov-11 21:00N 68°16' E 015°51'4 8.0
2017-Nov-11 20:30N 68°17' E 016°02'611.3
2017-Nov-11 20:00N 68°12' E 016°10'611.0
2017-Nov-11 19:30N 68°07' E 016°16'3 5.7
2017-Nov-11 19:00N 68°06' E 016°23'0 0.0
2017-Nov-11 18:30N 68°06' E 016°23'0 0.0
2017-Nov-11 17:57N 68°06' E 016°23'0 0.0
2017-Nov-11 17:30N 68°06' E 016°23'0 0.0
2017-Nov-11 17:00N 68°06' E 016°23'0 0.0
2017-Nov-11 16:30N 68°06' E 016°23'0 0.0
2017-Nov-11 16:00N 68°06' E 016°23'0 0.0
2017-Nov-11 15:27N 68°06' E 016°23'0 0.0
2017-Nov-11 15:00N 68°06' E 016°23'0 0.0
2017-Nov-11 14:30N 68°06' E 016°23'0 0.0
2017-Nov-11 14:00N 68°06' E 016°23'0 0.0
2017-Nov-11 13:30N 68°06' E 016°23'0 0.0
2017-Nov-11 13:00N 68°06' E 016°23'0 0.0
2017-Nov-11 12:30N 68°06' E 016°23'0 0.0
2017-Nov-11 12:00N 68°06' E 016°23'0 0.0
2017-Nov-11 11:30N 68°06' E 016°23'0 0.0
2017-Nov-11 11:00N 68°06' E 016°23'0 0.0
2017-Nov-11 10:30N 68°06' E 016°23'0 0.0
2017-Nov-11 10:00N 68°06' E 016°23'0 0.0
2017-Nov-11 09:30N 68°06' E 016°23'0 0.0
2017-Nov-11 09:00N 68°06' E 016°23'0 0.0
2017-Nov-11 08:30N 68°06' E 016°23'0 0.0
2017-Nov-11 08:00N 68°06' E 016°23'0 0.0
2017-Nov-11 07:30N 68°06' E 016°23'0 0.0
2017-Nov-11 07:00N 68°06' E 016°23'0 0.0
2017-Nov-11 06:30N 68°06' E 016°23'0 0.0
2017-Nov-11 06:00N 68°06' E 016°23'0 0.0
2017-Nov-11 05:30N 68°06' E 016°23'0 0.0
2017-Nov-11 05:00N 68°06' E 016°23'0 0.0
2017-Nov-11 04:27N 68°06' E 016°23'0 0.0
2017-Nov-11 04:00N 68°06' E 016°23'0 0.0
2017-Nov-11 03:30N 68°06' E 016°23'0 0.0
2017-Nov-11 03:00N 68°06' E 016°23'0 0.0
2017-Nov-11 02:30N 68°06' E 016°23'0 0.0
2017-Nov-11 02:00N 68°06' E 016°23'0 0.0
2017-Nov-11 01:30N 68°06' E 016°23'0 0.0
2017-Nov-11 01:00N 68°06' E 016°23'0 0.0
2017-Nov-11 00:29N 68°06' E 016°23'0 0.0
2017-Nov-10 23:59N 68°06' E 016°23'0 0.0
2017-Nov-10 23:29N 68°06' E 016°23'0 0.0
2017-Nov-10 22:56N 68°06' E 016°23'0 0.0
2017-Nov-10 22:29N 68°06' E 016°23'0 0.0
2017-Nov-10 21:59N 68°06' E 016°23'0 0.0
2017-Nov-10 21:29N 68°06' E 016°23'0 0.0
2017-Nov-10 20:59N 68°06' E 016°23'0 0.0
2017-Nov-10 20:29N 68°06' E 016°23'0 0.0
2017-Nov-10 19:59N 68°06' E 016°23'0 0.0
2017-Nov-10 19:29N 68°06' E 016°23'0 0.0
2017-Nov-10 18:59N 68°06' E 016°23'0 0.0
2017-Nov-10 18:29N 68°06' E 016°23'0 0.0
2017-Nov-10 17:59N 68°06' E 016°23'0 0.0
2017-Nov-10 17:29N 68°06' E 016°23'0 0.0
2017-Nov-10 16:59N 68°06' E 016°23'0 0.0
2017-Nov-10 16:26N 68°06' E 016°23'0 0.0
2017-Nov-10 15:59N 68°06' E 016°23'0 0.0
2017-Nov-10 15:26N 68°06' E 016°23'0 0.0
2017-Nov-10 14:59N 68°06' E 016°23'0 0.0
2017-Nov-10 14:29N 68°06' E 016°23'0 0.0
2017-Nov-10 13:56N 68°06' E 016°23'0 0.0
2017-Nov-10 13:29N 68°06' E 016°23'0 0.0
2017-Nov-10 12:59N 68°06' E 016°23'0 0.0
2017-Nov-10 12:29N 68°06' E 016°23'0 0.0
2017-Nov-10 11:59N 68°06' E 016°23'0 0.0
2017-Nov-10 11:29N 68°06' E 016°23'0 0.0
2017-Nov-10 10:59N 68°06' E 016°23'0 0.0
2017-Nov-10 10:29N 68°06' E 016°23'0 0.0
2017-Nov-10 09:59N 68°06' E 016°23'0 0.0
2017-Nov-10 09:29N 68°06' E 016°23'0 0.0
2017-Nov-10 08:56N 68°06' E 016°23'0 0.0
2017-Nov-10 08:29N 68°06' E 016°23'0 0.0
2017-Nov-10 07:59N 68°06' E 016°23'0 0.0
2017-Nov-10 07:29N 68°06' E 016°23'0 0.0
2017-Nov-10 06:59N 68°06' E 016°23'0 0.0
2017-Nov-10 06:29N 68°06' E 016°23'0 0.0
2017-Nov-10 05:59N 68°06' E 016°23'0 0.0
2017-Nov-10 05:29N 68°06' E 016°23'0 0.0
2017-Nov-10 04:59N 68°06' E 016°23'0 0.0
2017-Nov-10 04:29N 68°06' E 016°23'0 0.0
2017-Nov-10 03:59N 68°06' E 016°23'0 0.0
2017-Nov-10 03:29N 68°06' E 016°23'0 0.0
2017-Nov-10 02:59N 68°06' E 016°23'0 0.0
2017-Nov-10 02:26N 68°06' E 016°23'0 0.0
2017-Nov-10 01:56N 68°06' E 016°23'0 0.0
2017-Nov-10 01:29N 68°06' E 016°23'0 0.0
2017-Nov-10 00:59N 68°06' E 016°23'0 0.0
2017-Nov-10 00:29N 68°06' E 016°23'0 0.0
2017-Nov-09 23:59N 68°06' E 016°23'0 0.0
2017-Nov-09 23:29N 68°06' E 016°23'0 0.0
2017-Nov-09 22:59N 68°06' E 016°23'0 0.0
2017-Nov-09 22:29N 68°06' E 016°23'0 0.0
2017-Nov-09 21:59N 68°06' E 016°23'0 0.0
2017-Nov-09 21:29N 68°06' E 016°23'0 0.0
2017-Nov-09 20:59N 68°06' E 016°23'0 0.0
2017-Nov-09 20:29N 68°06' E 016°23'0 0.0
2017-Nov-09 19:59N 68°06' E 016°23'0 0.0
2017-Nov-09 19:29N 68°06' E 016°23'  

Dump ship's entire track history